createdAt,value
2019-03-27T00:01:16.112Z,9.70
2019-03-27T00:03:49.304Z,9.70
2019-03-27T00:06:21.063Z,9.70
2019-03-27T00:08:51.258Z,9.70
2019-03-27T00:11:21.818Z,9.60
2019-03-27T00:13:56.522Z,9.80
2019-03-27T00:16:26.658Z,9.80
2019-03-27T00:18:56.866Z,9.70
2019-03-27T00:21:32.313Z,9.70
2019-03-27T00:24:05.795Z,9.80
2019-03-27T00:26:39.051Z,9.80
2019-03-27T00:29:12.022Z,9.90
2019-03-27T00:31:42.425Z,10.10
2019-03-27T00:34:12.515Z,10.20
2019-03-27T00:36:42.689Z,10.20
2019-03-27T00:39:13.067Z,10.30
2019-03-27T00:41:43.279Z,10.30
2019-03-27T00:44:13.706Z,10.30
2019-03-27T00:46:43.946Z,10.30
2019-03-27T00:49:18.718Z,10.30
2019-03-27T00:51:48.810Z,10.50
2019-03-27T00:54:19.014Z,10.40
2019-03-27T00:56:50.766Z,10.40
2019-03-27T00:59:20.907Z,10.40
2019-03-27T01:01:51.027Z,10.40
2019-03-27T01:04:22.891Z,10.40
2019-03-27T01:06:53.258Z,10.60
2019-03-27T01:09:24.780Z,10.60
2019-03-27T01:11:55.033Z,10.50
2019-03-27T01:14:28.294Z,10.40
2019-03-27T01:16:59.983Z,10.40
2019-03-27T01:19:32.083Z,10.50
2019-03-27T01:22:03.168Z,10.60
2019-03-27T01:24:33.389Z,10.60
2019-03-27T01:27:03.524Z,10.60
2019-03-27T01:29:35.132Z,10.60
2019-03-27T01:32:08.049Z,10.40
2019-03-27T01:34:38.290Z,10.40
2019-03-27T01:37:08.951Z,10.30
2019-03-27T01:39:39.143Z,10.30
2019-03-27T01:42:09.137Z,10.30
2019-03-27T01:44:41.060Z,10.10
2019-03-27T01:47:11.166Z,10.00
2019-03-27T01:49:41.217Z,10.00
2019-03-27T01:52:14.821Z,10.00
2019-03-27T01:54:46.431Z,10.10
2019-03-27T01:57:16.518Z,10.20
2019-03-27T01:59:47.238Z,10.20
2019-03-27T02:02:17.554Z,10.30
2019-03-27T02:04:47.673Z,10.30
2019-03-27T02:07:17.762Z,10.30
2019-03-27T02:09:47.991Z,10.20
2019-03-27T02:12:21.152Z,10.20
2019-03-27T02:14:52.887Z,10.10
2019-03-27T02:17:23.015Z,10.10
2019-03-27T02:19:54.914Z,10.10
2019-03-27T02:22:26.619Z,10.20
2019-03-27T02:24:56.718Z,10.40
2019-03-27T02:27:26.739Z,10.40
2019-03-27T02:29:59.726Z,10.60
2019-03-27T02:32:30.048Z,10.60
2019-03-27T02:35:00.218Z,10.70
2019-03-27T02:37:32.171Z,10.70
2019-03-27T02:40:06.643Z,10.80
2019-03-27T02:42:36.695Z,10.80
2019-03-27T02:45:07.473Z,10.70
2019-03-27T02:47:39.222Z,10.70
2019-03-27T02:50:11.153Z,10.70
2019-03-27T02:52:41.286Z,10.60
2019-03-27T02:55:11.646Z,10.60
2019-03-27T02:57:41.951Z,10.60
2019-03-27T03:00:13.272Z,10.60
2019-03-27T03:02:43.547Z,10.70
2019-03-27T03:05:14.368Z,10.60
2019-03-27T03:07:44.668Z,10.50
2019-03-27T03:10:19.679Z,10.40
2019-03-27T03:12:49.808Z,10.10
2019-03-27T03:15:22.341Z,10.10
2019-03-27T03:17:54.111Z,9.70
2019-03-27T03:20:25.000Z,9.60
2019-03-27T03:22:58.225Z,9.50
2019-03-27T03:25:30.842Z,9.60
2019-03-27T03:28:20.422Z,9.70
2019-03-27T03:30:51.023Z,9.60
2019-03-27T03:33:23.164Z,9.60
2019-03-27T03:35:53.516Z,9.50
2019-03-27T03:38:23.813Z,9.60
2019-03-27T03:40:54.270Z,9.40
2019-03-27T03:43:24.595Z,9.40
2019-03-27T03:45:55.096Z,9.50
2019-03-27T03:48:26.983Z,9.40
2019-03-27T03:51:00.163Z,9.40
2019-03-27T03:53:31.008Z,9.40
2019-03-27T03:56:02.859Z,9.40
2019-03-27T03:58:36.879Z,9.40
2019-03-27T04:01:07.519Z,9.30
2019-03-27T04:03:39.680Z,9.30
2019-03-27T04:06:10.312Z,9.30
2019-03-27T04:08:41.048Z,9.30
2019-03-27T04:11:28.677Z,9.50
2019-03-27T04:13:59.002Z,9.50
2019-03-27T04:19:20.127Z,9.60
2019-03-27T04:21:50.847Z,9.60
2019-03-27T04:24:21.289Z,9.50
2019-03-27T04:26:51.829Z,9.70
2019-03-27T04:29:22.254Z,9.50
2019-03-27T04:31:52.874Z,9.50
2019-03-27T04:34:26.049Z,9.60
2019-03-27T04:36:56.500Z,9.70
2019-03-27T04:39:27.022Z,9.70
2019-03-27T04:41:59.087Z,9.70
2019-03-27T04:44:29.514Z,9.70
2019-03-27T04:47:06.637Z,9.60
2019-03-27T04:49:38.402Z,9.60
2019-03-27T04:52:08.432Z,9.70
2019-03-27T04:54:38.557Z,9.60
2019-03-27T04:57:28.178Z,9.60
2019-03-27T04:59:58.231Z,9.60
2019-03-27T05:02:28.626Z,9.70
2019-03-27T05:04:59.158Z,9.80
2019-03-27T05:07:30.921Z,9.90
2019-03-27T05:10:01.042Z,9.90
2019-03-27T05:12:32.557Z,10.00
2019-03-27T05:15:05.312Z,10.10
2019-03-27T05:17:45.329Z,10.10
2019-03-27T05:20:10.328Z,10.10
2019-03-27T05:22:40.563Z,10.20
2019-03-27T05:25:14.023Z,10.30
2019-03-27T05:27:44.198Z,10.40
2019-03-27T05:30:18.650Z,10.40
2019-03-27T05:32:48.862Z,10.40
2019-03-27T05:35:21.327Z,10.40
2019-03-27T05:37:51.638Z,10.30
2019-03-27T05:40:21.830Z,10.40
2019-03-27T05:43:00.455Z,10.30
2019-03-27T05:45:24.182Z,10.40
2019-03-27T05:47:59.848Z,10.30
2019-03-27T05:50:26.038Z,10.40
2019-03-27T05:52:58.406Z,10.40
2019-03-27T05:55:28.567Z,10.50
2019-03-27T05:57:58.891Z,10.60
2019-03-27T06:00:33.180Z,10.60
2019-03-27T06:03:01.767Z,10.70
2019-03-27T06:05:51.175Z,10.70
2019-03-27T06:08:22.379Z,10.80
2019-03-27T06:10:52.428Z,10.90
2019-03-27T06:13:23.647Z,10.90
2019-03-27T06:15:53.696Z,10.90
2019-03-27T06:18:28.935Z,11.00
2019-03-27T06:20:59.037Z,11.00
2019-03-27T06:23:29.299Z,11.00
2019-03-27T06:26:00.589Z,11.00
2019-03-27T06:28:30.870Z,11.00
2019-03-27T06:31:01.544Z,11.10
2019-03-27T06:33:34.824Z,11.10
2019-03-27T06:36:05.325Z,11.10
2019-03-27T06:38:36.662Z,11.00
2019-03-27T06:41:08.598Z,11.10
2019-03-27T06:43:38.719Z,11.10
2019-03-27T06:46:10.854Z,11.20
2019-03-27T06:48:41.032Z,11.30
2019-03-27T06:51:39.231Z,11.30
2019-03-27T06:53:58.560Z,11.40
2019-03-27T06:56:29.141Z,11.40
2019-03-27T06:58:59.464Z,11.50
2019-03-27T07:04:10.703Z,11.60
2019-03-27T07:06:38.938Z,11.60
2019-03-27T07:09:09.885Z,11.70
2019-03-27T07:11:41.326Z,11.70
2019-03-27T07:14:13.394Z,11.70
2019-03-27T07:16:43.820Z,11.70
2019-03-27T07:19:14.349Z,11.90
2019-03-27T07:21:48.152Z,12.00
2019-03-27T07:24:18.681Z,12.10
2019-03-27T07:26:50.955Z,12.10
2019-03-27T07:29:21.484Z,12.30
2019-03-27T07:31:51.907Z,12.40
2019-03-27T07:34:22.436Z,12.50
2019-03-27T07:36:56.049Z,12.50
2019-03-27T07:39:24.929Z,12.60
2019-03-27T07:41:55.365Z,12.70
2019-03-27T07:44:27.215Z,12.80
2019-03-27T07:46:59.899Z,12.90
2019-03-27T07:49:31.755Z,13.00
2019-03-27T07:52:02.181Z,13.20
2019-03-27T07:54:32.712Z,13.30
2019-03-27T07:57:03.244Z,13.40
2019-03-27T07:59:38.175Z,13.40
2019-03-27T08:02:08.496Z,13.40
2019-03-27T08:04:38.925Z,13.40
2019-03-27T08:07:09.247Z,13.40
2019-03-27T08:09:39.782Z,13.60
2019-03-27T08:12:19.031Z,13.70
2019-03-27T08:14:52.413Z,13.70
2019-03-27T08:17:22.731Z,13.90
2019-03-27T08:19:53.259Z,13.90
2019-03-27T08:22:23.584Z,14.10
2019-03-27T08:24:55.650Z,14.20
2019-03-27T08:27:26.146Z,14.40
2019-03-27T08:29:56.605Z,14.50
2019-03-27T08:32:28.056Z,14.60
2019-03-27T08:34:58.483Z,14.80
2019-03-27T08:37:29.114Z,14.80
2019-03-27T08:40:23.869Z,14.80
2019-03-27T08:42:56.033Z,15.00
2019-03-27T08:45:26.456Z,15.20
2019-03-27T08:47:56.779Z,15.20
2019-03-27T08:50:31.301Z,15.40
2019-03-27T08:53:04.905Z,15.50
2019-03-27T08:55:35.432Z,15.60
2019-03-27T08:58:05.981Z,15.70
2019-03-27T09:00:47.759Z,15.70
2019-03-27T09:03:18.478Z,15.90
2019-03-27T09:05:49.483Z,15.90
2019-03-27T09:08:19.947Z,15.70
2019-03-27T09:10:51.304Z,15.70
2019-03-27T09:13:21.629Z,15.70
2019-03-27T09:15:51.952Z,15.80
2019-03-27T09:18:25.764Z,16.10
2019-03-27T09:20:58.132Z,16.20
2019-03-27T09:23:30.708Z,16.30
2019-03-27T09:26:01.032Z,16.30
2019-03-27T09:28:31.563Z,16.50
2019-03-27T09:31:01.989Z,16.50
2019-03-27T09:33:33.860Z,16.10
2019-03-27T09:36:05.467Z,16.00
2019-03-27T09:38:37.676Z,15.80
2019-03-27T09:41:07.996Z,15.70
2019-03-27T09:43:40.471Z,16.10
2019-03-27T09:46:34.029Z,16.50
2019-03-27T09:49:05.903Z,16.70
2019-03-27T09:51:37.455Z,16.30
2019-03-27T09:54:09.417Z,16.60
2019-03-27T09:56:39.848Z,16.50
2019-03-27T09:59:10.374Z,16.60
2019-03-27T10:01:42.644Z,16.50
2019-03-27T10:04:12.968Z,16.80
2019-03-27T10:06:43.498Z,16.90
2019-03-27T10:09:13.929Z,17.20
2019-03-27T10:11:44.559Z,17.20
2019-03-27T10:14:14.994Z,17.10
2019-03-27T10:16:48.185Z,17.00
2019-03-27T10:19:20.150Z,17.20
2019-03-27T10:21:50.667Z,17.50
2019-03-27T10:24:21.093Z,17.60
2019-03-27T10:26:52.248Z,17.70
2019-03-27T10:29:26.759Z,17.50
2019-03-27T10:31:57.595Z,17.60
2019-03-27T10:34:28.022Z,17.70
2019-03-27T10:36:58.448Z,17.60
2019-03-27T10:39:31.742Z,17.60
2019-03-27T10:42:02.477Z,17.40
2019-03-27T10:44:32.967Z,17.50
2019-03-27T10:47:09.385Z,17.60
2019-03-27T10:49:40.003Z,17.60
2019-03-27T10:52:11.437Z,17.30
2019-03-27T10:54:44.737Z,17.00
2019-03-27T10:57:15.278Z,17.20
2019-03-27T10:59:48.780Z,17.70
2019-03-27T11:02:18.640Z,17.60
2019-03-27T11:04:48.802Z,18.10
2019-03-27T11:07:21.024Z,18.50
2019-03-27T11:09:51.332Z,19.00
2019-03-27T11:12:21.633Z,19.10
2019-03-27T11:14:51.899Z,19.30
2019-03-27T11:17:22.124Z,19.40
2019-03-27T11:19:52.435Z,19.80
2019-03-27T11:22:23.257Z,20.10
2019-03-27T11:24:55.027Z,20.20
2019-03-27T11:27:25.327Z,20.30
2019-03-27T11:29:55.640Z,20.40
2019-03-27T11:32:28.875Z,20.20
2019-03-27T11:34:59.167Z,20.20
2019-03-27T11:37:29.341Z,20.10
2019-03-27T11:39:59.801Z,19.70
2019-03-27T11:42:29.903Z,19.70
2019-03-27T11:45:00.350Z,20.00
2019-03-27T11:47:32.048Z,20.00
2019-03-27T11:50:03.566Z,20.10
2019-03-27T11:52:39.680Z,20.50
2019-03-27T11:55:10.157Z,20.80
2019-03-27T11:57:41.633Z,21.00
2019-03-27T12:00:14.258Z,21.70
2019-03-27T12:02:44.476Z,21.70
2019-03-27T12:05:17.703Z,21.50
2019-03-27T12:07:47.787Z,21.10
2019-03-27T12:10:18.072Z,20.10
2019-03-27T12:12:48.564Z,19.60
2019-03-27T12:15:21.673Z,19.70
2019-03-27T12:18:22.762Z,20.30
2019-03-27T12:20:58.768Z,21.20
2019-03-27T12:23:25.776Z,22.20
2019-03-27T12:25:56.480Z,22.50
2019-03-27T12:28:26.594Z,22.80
2019-03-27T12:30:56.893Z,23.00
2019-03-27T12:33:26.994Z,22.10
2019-03-27T12:35:57.184Z,21.30
2019-03-27T12:38:27.475Z,20.70
2019-03-27T12:40:57.573Z,20.70
2019-03-27T12:43:29.473Z,21.20
2019-03-27T12:45:59.761Z,21.40
2019-03-27T12:48:29.916Z,21.40
2019-03-27T12:51:12.284Z,21.30
2019-03-27T12:53:33.605Z,21.00
2019-03-27T12:56:05.397Z,21.20
2019-03-27T12:58:35.742Z,21.50
2019-03-27T13:01:08.376Z,21.90
2019-03-27T13:03:38.512Z,20.90
2019-03-27T13:06:08.609Z,21.30
2019-03-27T13:08:38.776Z,21.40
2019-03-27T13:11:08.889Z,21.20
2019-03-27T13:13:39.123Z,21.60
2019-03-27T13:16:09.349Z,22.00
2019-03-27T13:18:39.543Z,22.00
2019-03-27T13:21:09.800Z,22.40
2019-03-27T13:23:39.916Z,22.00
2019-03-27T13:26:11.684Z,20.90
2019-03-27T13:31:35.903Z,20.10
2019-03-27T13:34:06.421Z,20.20
2019-03-27T13:36:38.388Z,20.40
2019-03-27T13:39:08.810Z,20.60
2019-03-27T13:41:39.241Z,20.70
2019-03-27T13:44:13.042Z,21.10
2019-03-27T13:46:43.586Z,20.80
2019-03-27T13:49:14.000Z,19.80
2019-03-27T13:51:45.871Z,19.10
2019-03-27T13:54:16.391Z,19.10
2019-03-27T13:56:46.714Z,19.40
2019-03-27T13:59:17.348Z,19.50
2019-03-27T14:01:47.850Z,19.40
2019-03-27T14:04:18.302Z,19.20
2019-03-27T14:06:50.265Z,19.20
2019-03-27T14:09:20.884Z,19.00
2019-03-27T14:11:51.222Z,18.90
2019-03-27T14:14:21.646Z,18.70
2019-03-27T14:16:52.073Z,18.50
2019-03-27T14:19:22.398Z,18.30
2019-03-27T14:21:55.043Z,18.20
2019-03-27T14:24:25.096Z,18.40
2019-03-27T14:26:55.523Z,18.80
2019-03-27T14:29:25.951Z,18.90
2019-03-27T14:31:56.277Z,18.80
2019-03-27T14:34:27.520Z,18.70
2019-03-27T14:36:57.947Z,18.60
2019-03-27T14:39:28.377Z,18.20
2019-03-27T14:41:58.699Z,18.10
2019-03-27T14:44:29.740Z,17.90
2019-03-27T14:47:00.268Z,18.00
2019-03-27T14:49:30.696Z,17.90
2019-03-27T14:52:08.367Z,18.10
2019-03-27T14:54:39.023Z,18.00
2019-03-27T14:57:10.474Z,17.90
2019-03-27T14:59:40.799Z,17.80
2019-03-27T15:02:12.147Z,17.80
2019-03-27T15:04:42.475Z,17.90
2019-03-27T15:07:12.795Z,17.70
2019-03-27T15:09:43.734Z,17.70
2019-03-27T15:12:14.164Z,17.80
2019-03-27T15:14:44.899Z,17.60
2019-03-27T15:17:15.428Z,17.50
2019-03-27T15:19:58.037Z,17.60
2019-03-27T15:22:28.568Z,17.60
2019-03-27T15:24:59.404Z,17.60
2019-03-27T15:27:30.040Z,17.70
2019-03-27T15:30:00.565Z,17.50
2019-03-27T15:32:30.991Z,17.50
2019-03-27T15:35:01.568Z,17.40
2019-03-27T15:37:32.274Z,17.40
2019-03-27T15:40:02.679Z,17.50
2019-03-27T15:42:33.444Z,17.50
2019-03-27T15:45:07.973Z,17.40
2019-03-27T15:47:38.363Z,17.40
2019-03-27T15:50:10.525Z,17.50
2019-03-27T15:52:40.855Z,17.10
2019-03-27T15:55:11.684Z,16.90
2019-03-27T15:57:42.220Z,16.70
2019-03-27T16:00:15.555Z,16.50
2019-03-27T16:02:46.043Z,16.30
2019-03-27T16:05:33.673Z,16.20
2019-03-27T16:08:06.966Z,16.20
2019-03-27T16:10:37.475Z,16.30
2019-03-27T16:13:08.127Z,16.40
2019-03-27T16:15:38.555Z,16.50
2019-03-27T16:18:29.653Z,16.60
2019-03-27T16:21:00.195Z,16.60
2019-03-27T16:23:32.289Z,16.60
2019-03-27T16:26:05.342Z,16.30
2019-03-27T16:28:35.692Z,16.10
2019-03-27T16:31:05.877Z,16.00
2019-03-27T16:33:36.567Z,15.80
2019-03-27T16:36:06.877Z,15.60
2019-03-27T16:38:37.237Z,15.60
2019-03-27T16:41:07.498Z,15.60
2019-03-27T16:43:37.807Z,15.60
2019-03-27T16:46:12.058Z,15.60
2019-03-27T16:48:42.391Z,15.60
2019-03-27T16:51:12.730Z,15.60
2019-03-27T16:53:43.030Z,15.80
2019-03-27T16:56:15.160Z,15.70
2019-03-27T16:58:45.421Z,15.80
2019-03-27T17:01:15.663Z,15.60
2019-03-27T17:03:45.972Z,15.50
2019-03-27T17:06:16.366Z,15.40
2019-03-27T17:08:46.664Z,15.30
2019-03-27T17:11:18.588Z,15.30
2019-03-27T17:13:48.821Z,15.20
2019-03-27T17:16:20.046Z,15.30
2019-03-27T17:18:50.368Z,15.30
2019-03-27T17:21:20.609Z,15.40
2019-03-27T17:23:50.802Z,15.40
2019-03-27T17:26:21.009Z,15.20
2019-03-27T17:28:52.610Z,15.20
2019-03-27T17:34:16.477Z,15.20
2019-03-27T17:36:51.039Z,15.20
2019-03-27T17:39:21.105Z,15.30
2019-03-27T17:42:11.506Z,15.40
2019-03-27T17:44:41.483Z,15.30
2019-03-27T17:47:15.147Z,15.20
2019-03-27T17:49:46.605Z,15.20
2019-03-27T17:52:22.847Z,15.20
2019-03-27T17:54:53.195Z,15.30
2019-03-27T17:57:23.708Z,15.20
2019-03-27T17:59:53.847Z,15.20
2019-03-27T18:02:24.355Z,15.20
2019-03-27T18:04:55.631Z,15.20
2019-03-27T18:07:26.973Z,15.20
2019-03-27T18:10:06.704Z,15.10
2019-03-27T18:12:38.515Z,15.10
2019-03-27T18:15:09.329Z,15.00
2019-03-27T18:17:39.533Z,14.90
2019-03-27T18:20:11.144Z,14.90
2019-03-27T18:22:43.367Z,14.90
2019-03-27T18:25:14.871Z,14.90
2019-03-27T18:27:46.736Z,14.90
2019-03-27T18:30:20.724Z,14.80
2019-03-27T18:32:51.325Z,14.70
2019-03-27T18:35:21.619Z,14.70
2019-03-27T18:37:52.835Z,14.70
2019-03-27T18:40:23.126Z,14.50
2019-03-27T18:42:53.480Z,14.40
2019-03-27T18:45:23.858Z,14.30
2019-03-27T18:47:55.559Z,14.30
2019-03-27T18:50:25.778Z,14.10
2019-03-27T18:52:56.090Z,14.00
2019-03-27T18:55:27.132Z,14.00
2019-03-27T18:58:00.399Z,13.90
2019-03-27T19:00:29.996Z,13.90
2019-03-27T19:03:02.265Z,13.80
2019-03-27T19:05:33.922Z,13.80
2019-03-27T19:08:04.299Z,13.90
2019-03-27T19:10:34.908Z,13.90
2019-03-27T19:13:06.516Z,13.90
2019-03-27T19:15:36.666Z,13.80
2019-03-27T19:18:08.073Z,13.70
2019-03-27T19:20:39.313Z,13.60
2019-03-27T19:23:10.977Z,13.50
2019-03-27T19:25:41.300Z,13.50
2019-03-27T19:28:11.321Z,13.50
2019-03-27T19:30:41.757Z,13.30
2019-03-27T19:33:12.208Z,13.50
2019-03-27T19:35:42.420Z,13.50
2019-03-27T19:38:12.583Z,13.50
2019-03-27T19:40:43.782Z,13.60
2019-03-27T19:43:14.413Z,13.70
2019-03-27T19:45:49.043Z,13.30
2019-03-27T19:48:19.344Z,13.30
2019-03-27T19:50:51.661Z,13.20
2019-03-27T19:53:25.450Z,13.00
2019-03-27T19:55:56.383Z,12.80
2019-03-27T19:58:26.923Z,12.70
2019-03-27T20:00:57.658Z,12.90
2019-03-27T20:03:27.866Z,12.80
2019-03-27T20:05:59.954Z,12.50
2019-03-27T20:08:30.763Z,12.60
2019-03-27T20:11:01.325Z,12.70
2019-03-27T20:13:31.689Z,12.50
2019-03-27T20:16:03.338Z,12.60
2019-03-27T20:18:33.749Z,12.40
2019-03-27T20:21:03.988Z,12.20
2019-03-27T20:23:36.147Z,12.10
2019-03-27T20:26:06.290Z,12.00
2019-03-27T20:28:36.765Z,12.10
2019-03-27T20:31:07.220Z,11.80
2019-03-27T20:33:38.299Z,11.60
2019-03-27T20:36:12.937Z,11.60
2019-03-27T20:38:41.687Z,11.80
2019-03-27T20:41:23.187Z,12.00
2019-03-27T20:43:53.900Z,12.10
2019-03-27T20:46:27.729Z,12.10
2019-03-27T20:48:59.467Z,11.80
2019-03-27T20:51:31.228Z,11.60
2019-03-27T20:54:04.308Z,11.70
2019-03-27T20:56:34.952Z,11.50
2019-03-27T20:59:05.149Z,11.50
2019-03-27T21:01:35.311Z,11.50
2019-03-27T21:04:07.693Z,11.40
2019-03-27T21:06:37.852Z,11.30
2019-03-27T21:09:08.345Z,11.20
2019-03-27T21:11:40.510Z,11.00
2019-03-27T21:14:10.830Z,11.20
2019-03-27T21:16:43.311Z,11.20
2019-03-27T21:19:13.753Z,11.20
2019-03-27T21:21:44.109Z,11.10
2019-03-27T21:24:14.466Z,11.10
2019-03-27T21:26:45.838Z,11.00
2019-03-27T21:29:18.944Z,11.00
2019-03-27T21:31:49.146Z,11.10
2019-03-27T21:34:20.772Z,10.90
2019-03-27T21:36:52.191Z,10.90
2019-03-27T21:39:25.623Z,10.90
2019-03-27T21:41:58.147Z,11.00
2019-03-27T21:44:31.247Z,10.90
2019-03-27T21:47:01.487Z,10.80
2019-03-27T21:49:33.540Z,11.00
2019-03-27T21:52:03.651Z,10.70
2019-03-27T21:54:33.980Z,10.60
2019-03-27T21:57:04.410Z,10.40
2019-03-27T21:59:34.616Z,10.40
2019-03-27T22:02:08.819Z,10.30
2019-03-27T22:04:41.819Z,10.30
2019-03-27T22:07:12.140Z,10.30
2019-03-27T22:09:43.732Z,10.30
2019-03-27T22:12:18.661Z,10.40
2019-03-27T22:15:06.984Z,10.50
2019-03-27T22:17:51.231Z,10.70
2019-03-27T22:20:27.987Z,10.70
2019-03-27T22:22:58.142Z,10.60
2019-03-27T22:25:35.896Z,10.70
2019-03-27T22:28:00.170Z,10.50
2019-03-27T22:30:30.238Z,10.30
2019-03-27T22:33:00.331Z,10.40
2019-03-27T22:35:30.615Z,10.50
2019-03-27T22:38:00.821Z,10.60
2019-03-27T22:40:33.032Z,10.70
2019-03-27T22:43:03.127Z,10.80
2019-03-27T22:45:33.337Z,10.80
2019-03-27T22:48:03.637Z,10.70
2019-03-27T22:50:34.303Z,10.70
2019-03-27T22:53:04.537Z,10.80
2019-03-27T22:55:34.752Z,10.70
2019-03-27T22:58:04.842Z,10.70
2019-03-27T23:00:40.258Z,10.50
2019-03-27T23:03:18.119Z,10.60
2019-03-27T23:05:45.067Z,10.60
2019-03-27T23:08:17.590Z,10.70
2019-03-27T23:10:50.534Z,10.80
2019-03-27T23:13:21.639Z,10.80
2019-03-27T23:15:51.905Z,10.90
2019-03-27T23:18:22.004Z,11.00
2019-03-27T23:20:52.136Z,11.00
2019-03-27T23:23:23.706Z,11.20
2019-03-27T23:26:03.044Z,11.30
2019-03-27T23:28:28.390Z,11.30
2019-03-27T23:30:58.549Z,11.30
2019-03-27T23:33:28.623Z,11.20
2019-03-27T23:35:58.894Z,11.30
2019-03-27T23:38:29.102Z,11.30
2019-03-27T23:40:59.299Z,11.20
2019-03-27T23:43:30.792Z,11.20
2019-03-27T23:46:02.915Z,11.20
2019-03-27T23:48:35.637Z,11.30
2019-03-27T23:51:05.878Z,11.20
2019-03-27T23:53:44.343Z,11.20
2019-03-27T23:56:16.975Z,11.20
2019-03-27T23:58:46.306Z,11.30
